sensor_id;sensor_type;location;lat;lon;timestamp;temperature;humidity
963;DHT22;469;48.770;9.176;2022-12-05T14:31:02;5.00;1.00
963;DHT22;469;48.770;9.176;2022-12-05T14:41:09;7.90;1.00
963;DHT22;469;48.770;9.176;2022-12-05T14:43:51;7.80;1.00
963;DHT22;469;48.770;9.176;2022-12-05T14:46:30;7.60;1.00
963;DHT22;469;48.770;9.176;2022-12-05T14:49:33;7.50;1.00
963;DHT22;469;48.770;9.176;2022-12-05T14:52:10;7.40;1.00
963;DHT22;469;48.770;9.176;2022-12-05T14:54:56;7.40;1.00
963;DHT22;469;48.770;9.176;2022-12-05T14:57:35;7.30;1.00
963;DHT22;469;48.770;9.176;2022-12-05T15:00:34;7.30;1.00
963;DHT22;469;48.770;9.176;2022-12-05T15:03:23;7.30;1.00
963;DHT22;469;48.770;9.176;2022-12-05T15:08:27;7.20;1.00
963;DHT22;469;48.770;9.176;2022-12-05T15:10:04;7.20;1.00
963;DHT22;469;48.770;9.176;2022-12-05T15:49:44;6.20;1.00
963;DHT22;469;48.770;9.176;2022-12-05T15:52:18;6.20;1.00
963;DHT22;469;48.770;9.176;2022-12-05T15:54:56;6.10;1.00
963;DHT22;469;48.770;9.176;2022-12-05T15:57:40;6.10;1.00
963;DHT22;469;48.770;9.176;2022-12-05T16:00:19;6.00;1.00
963;DHT22;469;48.770;9.176;2022-12-05T16:02:51;6.00;1.00
963;DHT22;469;48.770;9.176;2022-12-05T16:05:23;6.00;1.00
963;DHT22;469;48.770;9.176;2022-12-05T16:07:53;6.00;1.00
963;DHT22;469;48.770;9.176;2022-12-05T16:10:33;6.10;1.00
963;DHT22;469;48.770;9.176;2022-12-05T16:13:10;6.10;1.00
963;DHT22;469;48.770;9.176;2022-12-05T16:15:56;6.20;1.00
963;DHT22;469;48.770;9.176;2022-12-05T16:18:25;6.20;1.00
963;DHT22;469;48.770;9.176;2022-12-05T16:20:53;6.20;1.00
963;DHT22;469;48.770;9.176;2022-12-05T16:26:57;6.30;1.00
963;DHT22;469;48.770;9.176;2022-12-05T16:36:13;6.50;1.00
963;DHT22;469;48.770;9.176;2022-12-05T16:39:18;6.50;1.00
963;DHT22;469;48.770;9.176;2022-12-05T16:46:39;6.50;1.00
963;DHT22;469;48.770;9.176;2022-12-05T17:20:53;6.90;1.00
963;DHT22;469;48.770;9.176;2022-12-05T17:23:29;6.90;1.00
963;DHT22;469;48.770;9.176;2022-12-05T17:26:32;6.80;1.00
963;DHT22;469;48.770;9.176;2022-12-05T17:36:39;6.60;1.00
963;DHT22;469;48.770;9.176;2022-12-05T17:39:29;6.80;1.00
963;DHT22;469;48.770;9.176;2022-12-05T17:48:08;6.80;1.00
963;DHT22;469;48.770;9.176;2022-12-05T17:48:51;6.80;1.00
963;DHT22;469;48.770;9.176;2022-12-05T19:34:53;6.60;1.00
963;DHT22;469;48.770;9.176;2022-12-05T19:37:20;6.60;1.00
963;DHT22;469;48.770;9.176;2022-12-05T19:39:47;6.60;1.00
963;DHT22;469;48.770;9.176;2022-12-05T19:42:16;6.50;1.00
963;DHT22;469;48.770;9.176;2022-12-05T19:44:43;6.40;1.00
963;DHT22;469;48.770;9.176;2022-12-05T19:47:10;6.40;1.00
963;DHT22;469;48.770;9.176;2022-12-05T19:49:37;6.40;1.00
963;DHT22;469;48.770;9.176;2022-12-05T19:52:06;6.40;1.00
963;DHT22;469;48.770;9.176;2022-12-05T19:54:33;6.40;1.00
963;DHT22;469;48.770;9.176;2022-12-05T19:57:00;6.40;1.00
963;DHT22;469;48.770;9.176;2022-12-05T19:59:29;6.40;1.00
963;DHT22;469;48.770;9.176;2022-12-05T20:01:56;6.50;1.00
963;DHT22;469;48.770;9.176;2022-12-05T20:04:25;6.30;1.00
963;DHT22;469;48.770;9.176;2022-12-05T20:06:51;6.40;1.00
963;DHT22;469;48.770;9.176;2022-12-05T20:09:23;6.60;1.00
963;DHT22;469;48.770;9.176;2022-12-05T20:11:50;6.70;1.00
963;DHT22;469;48.770;9.176;2022-12-05T20:14:18;6.70;1.00
963;DHT22;469;48.770;9.176;2022-12-05T20:16:45;6.60;1.00
963;DHT22;469;48.770;9.176;2022-12-05T20:19:12;6.50;1.00
963;DHT22;469;48.770;9.176;2022-12-05T20:21:39;6.60;1.00
963;DHT22;469;48.770;9.176;2022-12-05T20:24:07;6.70;1.00
963;DHT22;469;48.770;9.176;2022-12-05T20:26:38;6.70;1.00
963;DHT22;469;48.770;9.176;2022-12-05T20:29:05;6.80;1.00
963;DHT22;469;48.770;9.176;2022-12-05T20:31:35;6.80;1.00
963;DHT22;469;48.770;9.176;2022-12-05T20:34:03;6.80;1.00
963;DHT22;469;48.770;9.176;2022-12-05T20:36:31;6.70;1.00
963;DHT22;469;48.770;9.176;2022-12-05T20:39:00;6.80;1.00
963;DHT22;469;48.770;9.176;2022-12-05T20:41:30;6.70;1.00
963;DHT22;469;48.770;9.176;2022-12-05T20:43:59;6.70;1.00
963;DHT22;469;48.770;9.176;2022-12-05T20:46:27;6.80;1.00
963;DHT22;469;48.770;9.176;2022-12-05T20:48:54;6.80;1.00
963;DHT22;469;48.770;9.176;2022-12-05T20:51:22;6.70;1.00
963;DHT22;469;48.770;9.176;2022-12-05T20:53:52;6.80;1.00
963;DHT22;469;48.770;9.176;2022-12-05T20:56:21;6.90;1.00
963;DHT22;469;48.770;9.176;2022-12-05T20:58:52;6.90;1.00
963;DHT22;469;48.770;9.176;2022-12-05T21:01:22;6.80;1.00
963;DHT22;469;48.770;9.176;2022-12-05T21:03:52;6.80;1.00
963;DHT22;469;48.770;9.176;2022-12-05T21:06:22;6.70;1.00
963;DHT22;469;48.770;9.176;2022-12-05T21:08:49;6.60;1.00
963;DHT22;469;48.770;9.176;2022-12-05T21:11:16;6.60;1.00
963;DHT22;469;48.770;9.176;2022-12-05T21:13:43;6.50;1.00
963;DHT22;469;48.770;9.176;2022-12-05T21:16:12;6.30;1.00
963;DHT22;469;48.770;9.176;2022-12-05T21:18:46;6.30;1.00
963;DHT22;469;48.770;9.176;2022-12-05T21:21:14;6.30;1.00
963;DHT22;469;48.770;9.176;2022-12-05T21:23:47;6.20;1.00
963;DHT22;469;48.770;9.176;2022-12-05T21:26:15;6.30;1.00
963;DHT22;469;48.770;9.176;2022-12-05T21:28:43;6.10;1.00
963;DHT22;469;48.770;9.176;2022-12-05T21:31:12;6.10;1.00
963;DHT22;469;48.770;9.176;2022-12-05T21:33:50;6.10;1.00
963;DHT22;469;48.770;9.176;2022-12-05T21:36:18;6.10;1.00
963;DHT22;469;48.770;9.176;2022-12-05T21:38:45;6.20;1.00
963;DHT22;469;48.770;9.176;2022-12-05T21:41:14;6.20;1.00
963;DHT22;469;48.770;9.176;2022-12-05T21:43:41;6.20;1.00
963;DHT22;469;48.770;9.176;2022-12-05T21:46:08;6.20;1.00
963;DHT22;469;48.770;9.176;2022-12-05T21:48:35;6.10;1.00
963;DHT22;469;48.770;9.176;2022-12-05T21:51:05;6.10;1.00
963;DHT22;469;48.770;9.176;2022-12-05T21:53:33;6.10;1.00
963;DHT22;469;48.770;9.176;2022-12-05T21:56:01;6.20;1.00
963;DHT22;469;48.770;9.176;2022-12-05T21:58:28;6.20;1.00
963;DHT22;469;48.770;9.176;2022-12-05T22:00:55;6.20;1.00
963;DHT22;469;48.770;9.176;2022-12-05T22:03:25;6.20;1.00
963;DHT22;469;48.770;9.176;2022-12-05T22:06:06;6.20;1.00
963;DHT22;469;48.770;9.176;2022-12-05T22:08:35;6.20;1.00
963;DHT22;469;48.770;9.176;2022-12-05T22:11:04;6.20;1.00
963;DHT22;469;48.770;9.176;2022-12-05T22:13:31;6.20;1.00
963;DHT22;469;48.770;9.176;2022-12-05T22:15:59;6.10;1.00
963;DHT22;469;48.770;9.176;2022-12-05T22:18:26;6.00;1.00
963;DHT22;469;48.770;9.176;2022-12-05T22:20:54;6.00;1.00
963;DHT22;469;48.770;9.176;2022-12-05T22:23:23;6.00;1.00
963;DHT22;469;48.770;9.176;2022-12-05T22:26:01;6.00;1.00
963;DHT22;469;48.770;9.176;2022-12-05T22:28:29;5.90;1.00
963;DHT22;469;48.770;9.176;2022-12-05T22:30:58;6.00;1.00
963;DHT22;469;48.770;9.176;2022-12-05T22:33:26;6.00;1.00
963;DHT22;469;48.770;9.176;2022-12-05T22:35:54;6.00;1.00
963;DHT22;469;48.770;9.176;2022-12-05T22:38:26;6.00;1.00
963;DHT22;469;48.770;9.176;2022-12-05T22:40:53;6.00;1.00
963;DHT22;469;48.770;9.176;2022-12-05T22:43:23;6.00;1.00
963;DHT22;469;48.770;9.176;2022-12-05T22:45:51;5.90;1.00
963;DHT22;469;48.770;9.176;2022-12-05T22:48:18;5.90;1.00
963;DHT22;469;48.770;9.176;2022-12-05T22:50:51;5.90;1.00
963;DHT22;469;48.770;9.176;2022-12-05T22:53:20;5.90;1.00
963;DHT22;469;48.770;9.176;2022-12-05T22:55:49;5.80;1.00
963;DHT22;469;48.770;9.176;2022-12-05T22:58:17;5.80;1.00
963;DHT22;469;48.770;9.176;2022-12-05T23:00:44;5.80;1.00
963;DHT22;469;48.770;9.176;2022-12-05T23:03:12;5.80;1.00
963;DHT22;469;48.770;9.176;2022-12-05T23:05:41;5.80;1.00
963;DHT22;469;48.770;9.176;2022-12-05T23:08:09;5.80;1.00
963;DHT22;469;48.770;9.176;2022-12-05T23:10:36;5.70;1.00
963;DHT22;469;48.770;9.176;2022-12-05T23:13:05;5.70;1.00
963;DHT22;469;48.770;9.176;2022-12-05T23:15:33;5.70;1.00
963;DHT22;469;48.770;9.176;2022-12-05T23:18:02;5.70;1.00
963;DHT22;469;48.770;9.176;2022-12-05T23:20:29;5.70;1.00
963;DHT22;469;48.770;9.176;2022-12-05T23:22:56;5.70;1.00
963;DHT22;469;48.770;9.176;2022-12-05T23:25:25;5.70;1.00
963;DHT22;469;48.770;9.176;2022-12-05T23:27:52;5.70;1.00
963;DHT22;469;48.770;9.176;2022-12-05T23:30:20;5.60;1.00
963;DHT22;469;48.770;9.176;2022-12-05T23:32:47;5.60;1.00
963;DHT22;469;48.770;9.176;2022-12-05T23:35:14;5.60;1.00
963;DHT22;469;48.770;9.176;2022-12-05T23:37:41;5.60;1.00
963;DHT22;469;48.770;9.176;2022-12-05T23:40:09;5.60;1.00
963;DHT22;469;48.770;9.176;2022-12-05T23:42:36;5.60;1.00
963;DHT22;469;48.770;9.176;2022-12-05T23:45:03;5.60;1.00
963;DHT22;469;48.770;9.176;2022-12-05T23:47:32;5.60;1.00
963;DHT22;469;48.770;9.176;2022-12-05T23:49:59;5.50;1.00
963;DHT22;469;48.770;9.176;2022-12-05T23:52:26;5.50;1.00
963;DHT22;469;48.770;9.176;2022-12-05T23:54:53;5.50;1.00
963;DHT22;469;48.770;9.176;2022-12-05T23:57:20;5.60;1.00
963;DHT22;469;48.770;9.176;2022-12-05T23:59:47;5.60;1.00
